Sallisaw, Oklahoma
Current Conditions -  °F | °C
As of 6:35 PM on Thursday 18 Dec 2014 (Local Time) from KJSV Reporting Station
Overcast Overcast  
Wind Chill: 41°   Ceiling: 900
Heat Index: 41°   Visibility: 7mi
Dew Point: 37°   Wind: 0mph
Humidity: 87%   Direction: NA
Pressure: 30.21"   Gusts: NA
Location:  35.46°N, 94.79°W
Report Text: KJSV 190035Z AUTO 00000KT 7SM OVC009 05/03 A3021 RMK AO2
Loading
Personal Weather Stations






























Interactive Weather Map New forecast layout! Learn more

10-Day Weather Forecast

Advertisements
Track Severe Weather on mobile